DAL864 PAJN-KSEA
Flight info
| Callsign | DAL864 |
|---|---|
| Flight time | 2h 1m |
| Altitude | 35000 |
| Route | GLAZZ1 SNETT ANN VIXOR MARNR8 |
| Aircraft | A320/M-SDE3FGHIRWY/LB1 |
Departure
| Time | 2026-05-01 13:30 |
|---|---|
| Airport | Juneau International Airport (PAJN) |
Arrival
| Time | 2026-05-01 15:32 |
|---|---|
| Airport | Seattle–Tacoma International Airport (KSEA) |
| Time | Latitude | Longitude | Altitude | Speed | Heading |
|---|---|---|---|---|---|
| 2026-05-01 12:49 | 58.35839 | -134.58371 | 35 ft | 0 kts | 19° |
| 2026-05-01 13:16 | 58.35818 | -134.58385 | 33 ft | 4 kts | 20° |
| 2026-05-01 13:17 | 58.35791 | -134.58468 | 35 ft | 0 kts | 105° |
| 2026-05-01 13:21 | 58.35783 | -134.58406 | 35 ft | 8 kts | 106° |
| 2026-05-01 13:21 | 58.35740 | -134.58304 | 35 ft | 12 kts | 166° |
| 2026-05-01 13:21 | 58.35687 | -134.58197 | 34 ft | 14 kts | 105° |
| 2026-05-01 13:21 | 58.35657 | -134.57981 | 34 ft | 19 kts | 104° |
| 2026-05-01 13:22 | 58.35623 | -134.57732 | 34 ft | 20 kts | 106° |
| 2026-05-01 13:22 | 58.35586 | -134.57465 | 35 ft | 21 kts | 103° |
| 2026-05-01 13:22 | 58.35547 | -134.57181 | 34 ft | 23 kts | 105° |
| 2026-05-01 13:22 | 58.35504 | -134.56876 | 34 ft | 25 kts | 105° |
| 2026-05-01 13:23 | 58.35458 | -134.56553 | 34 ft | 26 kts | 104° |
| 2026-05-01 13:23 | 58.35411 | -134.56210 | 33 ft | 27 kts | 105° |
| 2026-05-01 13:23 | 58.35362 | -134.55860 | 33 ft | 26 kts | 104° |
| 2026-05-01 13:23 | 58.35323 | -134.55575 | 33 ft | 14 kts | 104° |
| 2026-05-01 13:24 | 58.35301 | -134.55413 | 31 ft | 12 kts | 104° |
| 2026-05-01 13:24 | 58.35283 | -134.55323 | 33 ft | 0 kts | 133° |
| 2026-05-01 13:28 | 58.35246 | -134.55300 | 33 ft | 11 kts | 182° |
| 2026-05-01 13:28 | 58.35182 | -134.55380 | 32 ft | 13 kts | 265° |
| 2026-05-01 13:29 | 58.35258 | -134.55925 | 31 ft | 78 kts | 284° |
| 2026-05-01 13:29 | 58.35730 | -134.59315 | 262 ft | 165 kts | 284° |
| 2026-05-01 13:30 | 58.34170 | -134.68028 | 2768 ft | 192 kts | 225° |
| 2026-05-01 13:31 | 58.31715 | -134.70387 | 3798 ft | 211 kts | 188° |
| 2026-05-01 13:31 | 58.26907 | -134.70283 | 5647 ft | 249 kts | 155° |
| 2026-05-01 13:32 | 58.24251 | -134.65934 | 7327 ft | 258 kts | 131° |
| 2026-05-01 13:33 | 58.21627 | -134.56469 | 9505 ft | 281 kts | 113° |
| 2026-05-01 13:33 | 58.20148 | -134.49360 | 10656 ft | 304 kts | 114° |
| 2026-05-01 13:34 | 58.18378 | -134.41407 | 11033 ft | 350 kts | 114° |
| 2026-05-01 13:34 | 58.16358 | -134.32522 | 11821 ft | 375 kts | 114° |
| 2026-05-01 13:35 | 58.14271 | -134.23390 | 13227 ft | 380 kts | 115° |
| 2026-05-01 13:35 | 58.13206 | -134.18803 | 13947 ft | 382 kts | 116° |
| 2026-05-01 13:35 | 58.10139 | -134.10588 | 15099 ft | 387 kts | 136° |
| 2026-05-01 13:36 | 58.08810 | -134.08335 | 15479 ft | 389 kts | 141° |
| 2026-05-01 13:36 | 58.06715 | -134.05082 | 16061 ft | 391 kts | 141° |
| 2026-05-01 13:36 | 58.02492 | -133.98477 | 17249 ft | 397 kts | 141° |
| 2026-05-01 13:37 | 58.00361 | -133.95135 | 17826 ft | 400 kts | 141° |
| 2026-05-01 13:37 | 57.98214 | -133.91773 | 18395 ft | 403 kts | 141° |
| 2026-05-01 13:37 | 57.96047 | -133.88387 | 18891 ft | 406 kts | 141° |
| 2026-05-01 13:37 | 57.93863 | -133.84987 | 19350 ft | 409 kts | 141° |
| 2026-05-01 13:38 | 57.89440 | -133.78139 | 20255 ft | 415 kts | 142° |
| 2026-05-01 13:38 | 57.87197 | -133.74682 | 20685 ft | 418 kts | 142° |
| 2026-05-01 13:38 | 57.84934 | -133.71205 | 21102 ft | 421 kts | 142° |
| 2026-05-01 13:39 | 57.82659 | -133.67714 | 21497 ft | 424 kts | 142° |
| 2026-05-01 13:39 | 57.80306 | -133.64356 | 21889 ft | 426 kts | 148° |
| 2026-05-01 13:39 | 57.77721 | -133.61647 | 22264 ft | 427 kts | 156° |
| 2026-05-01 13:39 | 57.74985 | -133.59425 | 22648 ft | 429 kts | 158° |
| 2026-05-01 13:40 | 57.72274 | -133.57245 | 23013 ft | 431 kts | 158° |
| 2026-05-01 13:40 | 57.69508 | -133.55018 | 23379 ft | 434 kts | 158° |
| 2026-05-01 13:40 | 57.66728 | -133.52779 | 23731 ft | 436 kts | 158° |
| 2026-05-01 13:40 | 57.63933 | -133.50530 | 24048 ft | 439 kts | 158° |
| 2026-05-01 13:41 | 57.61126 | -133.48269 | 24336 ft | 441 kts | 158° |
| 2026-05-01 13:41 | 57.58303 | -133.45998 | 24611 ft | 443 kts | 158° |
| 2026-05-01 13:41 | 57.55467 | -133.43719 | 24907 ft | 445 kts | 158° |
| 2026-05-01 13:41 | 57.52616 | -133.41434 | 25189 ft | 447 kts | 158° |
| 2026-05-01 13:42 | 57.49754 | -133.39148 | 25468 ft | 448 kts | 158° |
| 2026-05-01 13:42 | 57.46883 | -133.36860 | 25737 ft | 450 kts | 159° |
| 2026-05-01 13:42 | 57.43995 | -133.34565 | 25989 ft | 452 kts | 159° |
| 2026-05-01 13:42 | 57.41099 | -133.32269 | 26244 ft | 454 kts | 159° |
| 2026-05-01 13:43 | 57.38191 | -133.29971 | 26492 ft | 455 kts | 159° |
| 2026-05-01 13:43 | 57.35279 | -133.27669 | 26732 ft | 457 kts | 159° |
| 2026-05-01 13:43 | 57.32350 | -133.25351 | 26952 ft | 458 kts | 159° |
| 2026-05-01 13:43 | 57.29418 | -133.23032 | 27266 ft | 458 kts | 159° |
| 2026-05-01 13:44 | 57.26493 | -133.20723 | 27582 ft | 457 kts | 159° |
| 2026-05-01 13:44 | 57.23571 | -133.18425 | 27935 ft | 456 kts | 159° |
| 2026-05-01 13:44 | 57.20650 | -133.16135 | 28258 ft | 455 kts | 159° |
| 2026-05-01 13:44 | 57.17737 | -133.13855 | 28595 ft | 455 kts | 159° |
| 2026-05-01 13:45 | 57.14826 | -133.11581 | 28943 ft | 454 kts | 159° |
| 2026-05-01 13:45 | 57.11921 | -133.09316 | 29285 ft | 453 kts | 159° |
| 2026-05-01 13:45 | 57.09022 | -133.07056 | 29625 ft | 452 kts | 159° |
| 2026-05-01 13:45 | 57.06127 | -133.04802 | 29973 ft | 452 kts | 159° |
| 2026-05-01 13:46 | 57.03233 | -133.02552 | 30317 ft | 451 kts | 160° |
| 2026-05-01 13:46 | 57.00346 | -133.00315 | 30610 ft | 450 kts | 160° |
| 2026-05-01 13:46 | 56.97464 | -132.98087 | 30893 ft | 450 kts | 160° |
| 2026-05-01 13:46 | 56.94579 | -132.95860 | 31186 ft | 449 kts | 160° |
| 2026-05-01 13:47 | 56.91702 | -132.93641 | 31467 ft | 449 kts | 160° |
| 2026-05-01 13:47 | 56.88826 | -132.91426 | 31752 ft | 448 kts | 160° |
| 2026-05-01 13:47 | 56.85951 | -132.89218 | 32034 ft | 448 kts | 160° |
| 2026-05-01 13:47 | 56.83044 | -132.86989 | 32322 ft | 447 kts | 160° |
| 2026-05-01 13:48 | 56.80212 | -132.84819 | 32601 ft | 447 kts | 160° |
| 2026-05-01 13:48 | 56.77308 | -132.82598 | 32875 ft | 446 kts | 160° |
| 2026-05-01 13:48 | 56.74449 | -132.80417 | 33158 ft | 446 kts | 160° |
| 2026-05-01 13:48 | 56.71586 | -132.78235 | 33440 ft | 445 kts | 160° |
| 2026-05-01 13:49 | 56.68765 | -132.76088 | 33720 ft | 445 kts | 160° |
| 2026-05-01 13:49 | 56.65875 | -132.73893 | 34003 ft | 444 kts | 160° |
| 2026-05-01 13:49 | 56.63026 | -132.71730 | 34263 ft | 444 kts | 160° |
| 2026-05-01 13:49 | 56.60168 | -132.69560 | 34444 ft | 445 kts | 160° |
| 2026-05-01 13:50 | 56.57310 | -132.67395 | 34637 ft | 446 kts | 160° |
| 2026-05-01 13:50 | 56.54441 | -132.65227 | 34832 ft | 447 kts | 160° |
| 2026-05-01 13:50 | 56.51572 | -132.63066 | 35009 ft | 447 kts | 160° |
| 2026-05-01 13:50 | 56.48693 | -132.60899 | 35182 ft | 448 kts | 160° |
| 2026-05-01 13:51 | 56.45807 | -132.58733 | 35256 ft | 451 kts | 160° |
| 2026-05-01 13:51 | 56.39975 | -132.54374 | 35266 ft | 455 kts | 160° |
| 2026-05-01 13:52 | 56.34117 | -132.50003 | 35263 ft | 455 kts | 160° |
| 2026-05-01 13:52 | 56.28262 | -132.45627 | 35263 ft | 455 kts | 160° |
| 2026-05-01 13:53 | 56.22401 | -132.41280 | 35255 ft | 455 kts | 160° |
| 2026-05-01 13:53 | 56.13616 | -132.34815 | 35254 ft | 455 kts | 160° |
| 2026-05-01 13:54 | 56.07761 | -132.30498 | 35254 ft | 455 kts | 160° |
| 2026-05-01 13:54 | 56.01912 | -132.26197 | 35253 ft | 454 kts | 160° |
| 2026-05-01 13:55 | 55.96049 | -132.21917 | 35227 ft | 455 kts | 161° |
| 2026-05-01 13:55 | 55.90188 | -132.17649 | 35232 ft | 456 kts | 161° |
| 2026-05-01 13:56 | 55.84310 | -132.13375 | 35239 ft | 456 kts | 161° |
| 2026-05-01 13:56 | 55.78436 | -132.09119 | 35241 ft | 456 kts | 161° |
| 2026-05-01 13:57 | 55.73549 | -132.05596 | 35236 ft | 456 kts | 161° |
| 2026-05-01 13:57 | 55.66675 | -132.00657 | 35231 ft | 456 kts | 161° |
| 2026-05-01 13:58 | 55.60794 | -131.96444 | 35234 ft | 456 kts | 161° |
| 2026-05-01 13:58 | 55.54907 | -131.92235 | 35238 ft | 456 kts | 161° |
| 2026-05-01 13:59 | 55.49022 | -131.88041 | 35234 ft | 456 kts | 161° |
| 2026-05-01 13:59 | 55.43126 | -131.83867 | 35220 ft | 456 kts | 161° |
| 2026-05-01 14:00 | 55.37231 | -131.79703 | 35222 ft | 457 kts | 161° |
| 2026-05-01 14:00 | 55.31337 | -131.75538 | 35228 ft | 457 kts | 161° |
| 2026-05-01 14:01 | 55.25436 | -131.71381 | 35234 ft | 457 kts | 161° |
| 2026-05-01 14:01 | 55.19529 | -131.67242 | 35235 ft | 457 kts | 161° |
| 2026-05-01 14:02 | 55.13614 | -131.63112 | 35222 ft | 457 kts | 161° |
| 2026-05-01 14:02 | 55.07765 | -131.58903 | 35222 ft | 460 kts | 156° |
| 2026-05-01 14:03 | 55.02523 | -131.52417 | 35227 ft | 466 kts | 141° |
| 2026-05-01 14:03 | 54.97672 | -131.44931 | 35230 ft | 466 kts | 141° |
| 2026-05-01 14:04 | 54.92804 | -131.37471 | 35217 ft | 466 kts | 141° |
| 2026-05-01 14:04 | 54.88719 | -131.31236 | 35223 ft | 467 kts | 141° |
| 2026-05-01 14:05 | 54.83048 | -131.22588 | 35223 ft | 467 kts | 142° |
| 2026-05-01 14:05 | 54.78152 | -131.15172 | 35227 ft | 467 kts | 142° |
| 2026-05-01 14:06 | 54.73251 | -131.07749 | 35230 ft | 468 kts | 142° |
| 2026-05-01 14:06 | 54.68355 | -131.00347 | 35223 ft | 468 kts | 142° |
| 2026-05-01 14:07 | 54.63446 | -130.92970 | 35221 ft | 467 kts | 142° |
| 2026-05-01 14:08 | 54.56076 | -130.81944 | 35228 ft | 467 kts | 142° |
| 2026-05-01 14:08 | 54.51157 | -130.74610 | 35222 ft | 468 kts | 142° |
| 2026-05-01 14:09 | 54.46234 | -130.67290 | 35220 ft | 468 kts | 142° |
| 2026-05-01 14:09 | 54.41312 | -130.59987 | 35210 ft | 467 kts | 142° |
| 2026-05-01 14:10 | 54.36383 | -130.52706 | 35206 ft | 467 kts | 142° |
| 2026-05-01 14:10 | 54.31443 | -130.45449 | 35204 ft | 467 kts | 143° |
| 2026-05-01 14:11 | 54.26506 | -130.38209 | 35201 ft | 467 kts | 143° |
| 2026-05-01 14:11 | 54.19090 | -130.27370 | 35236 ft | 467 kts | 143° |
| 2026-05-01 14:12 | 54.14148 | -130.20173 | 35243 ft | 467 kts | 143° |
| 2026-05-01 14:12 | 54.09206 | -130.12994 | 35221 ft | 466 kts | 143° |
| 2026-05-01 14:13 | 54.05097 | -130.07055 | 35242 ft | 466 kts | 143° |
| 2026-05-01 14:13 | 53.99317 | -129.98737 | 35249 ft | 465 kts | 143° |
| 2026-05-01 14:14 | 53.94375 | -129.91651 | 35249 ft | 465 kts | 143° |
| 2026-05-01 14:14 | 53.89436 | -129.84584 | 35244 ft | 464 kts | 143° |
| 2026-05-01 14:15 | 53.85335 | -129.78720 | 35238 ft | 464 kts | 143° |
| 2026-05-01 14:15 | 53.80403 | -129.71679 | 35244 ft | 463 kts | 143° |
| 2026-05-01 14:16 | 53.75464 | -129.64694 | 35237 ft | 463 kts | 143° |
| 2026-05-01 14:16 | 53.70526 | -129.57722 | 35236 ft | 463 kts | 143° |
| 2026-05-01 14:17 | 53.65591 | -129.50768 | 35217 ft | 462 kts | 143° |
| 2026-05-01 14:17 | 53.60652 | -129.43828 | 35217 ft | 462 kts | 143° |
| 2026-05-01 14:18 | 53.55715 | -129.36907 | 35217 ft | 462 kts | 143° |
| 2026-05-01 14:18 | 53.50780 | -129.30007 | 35215 ft | 461 kts | 143° |
| 2026-05-01 14:19 | 53.45840 | -129.23130 | 35198 ft | 461 kts | 143° |
| 2026-05-01 14:19 | 53.40906 | -129.16280 | 35210 ft | 461 kts | 143° |
| 2026-05-01 14:20 | 53.33496 | -129.06044 | 35211 ft | 460 kts | 143° |
| 2026-05-01 14:21 | 53.28558 | -128.99235 | 35212 ft | 460 kts | 143° |
| 2026-05-01 14:21 | 53.23618 | -128.92451 | 35209 ft | 459 kts | 143° |
| 2026-05-01 14:22 | 53.16207 | -128.82321 | 35214 ft | 459 kts | 143° |
| 2026-05-01 14:22 | 53.11263 | -128.75609 | 35212 ft | 458 kts | 143° |
| 2026-05-01 14:23 | 53.06322 | -128.68897 | 35197 ft | 458 kts | 143° |
| 2026-05-01 14:23 | 53.01412 | -128.62246 | 35202 ft | 458 kts | 144° |
| 2026-05-01 14:24 | 52.96467 | -128.55577 | 35201 ft | 458 kts | 144° |
| 2026-05-01 14:24 | 52.91520 | -128.48922 | 35205 ft | 458 kts | 144° |
| 2026-05-01 14:25 | 52.86574 | -128.42275 | 35202 ft | 458 kts | 144° |
| 2026-05-01 14:25 | 52.81627 | -128.35643 | 35190 ft | 458 kts | 144° |
| 2026-05-01 14:26 | 52.74172 | -128.25722 | 35195 ft | 458 kts | 145° |
| 2026-05-01 14:27 | 52.69199 | -128.19128 | 35191 ft | 459 kts | 145° |
| 2026-05-01 14:27 | 52.64229 | -128.12546 | 35180 ft | 459 kts | 145° |
| 2026-05-01 14:28 | 52.56766 | -128.02707 | 35194 ft | 458 kts | 145° |
| 2026-05-01 14:28 | 52.51792 | -127.96175 | 35198 ft | 458 kts | 145° |
| 2026-05-01 14:29 | 52.46814 | -127.89653 | 35202 ft | 458 kts | 145° |
| 2026-05-01 14:30 | 52.36863 | -127.76671 | 35198 ft | 457 kts | 145° |
| 2026-05-01 14:31 | 52.29390 | -127.66980 | 35199 ft | 457 kts | 145° |
| 2026-05-01 14:31 | 52.24407 | -127.60537 | 35181 ft | 456 kts | 145° |
| 2026-05-01 14:32 | 52.19422 | -127.54126 | 35190 ft | 456 kts | 145° |
| 2026-05-01 14:32 | 52.14442 | -127.47740 | 35196 ft | 455 kts | 145° |
| 2026-05-01 14:33 | 52.09480 | -127.41378 | 35200 ft | 455 kts | 146° |
| 2026-05-01 14:33 | 52.04511 | -127.35016 | 35174 ft | 454 kts | 146° |
| 2026-05-01 14:34 | 51.99537 | -127.28677 | 35178 ft | 454 kts | 146° |
| 2026-05-01 14:34 | 51.94562 | -127.22364 | 35188 ft | 454 kts | 146° |
| 2026-05-01 14:35 | 51.89585 | -127.16064 | 35181 ft | 454 kts | 146° |
| 2026-05-01 14:35 | 51.84610 | -127.09791 | 35178 ft | 453 kts | 146° |
| 2026-05-01 14:36 | 51.79633 | -127.03530 | 35164 ft | 453 kts | 146° |
| 2026-05-01 14:36 | 51.74655 | -126.97282 | 35165 ft | 453 kts | 146° |
| 2026-05-01 14:37 | 51.69672 | -126.91041 | 35163 ft | 453 kts | 146° |
| 2026-05-01 14:37 | 51.64693 | -126.84812 | 35166 ft | 453 kts | 146° |
| 2026-05-01 14:38 | 51.59712 | -126.78613 | 35152 ft | 452 kts | 147° |
| 2026-05-01 14:38 | 51.54729 | -126.72442 | 35164 ft | 452 kts | 147° |
| 2026-05-01 14:39 | 51.49749 | -126.66289 | 35166 ft | 452 kts | 147° |
| 2026-05-01 14:39 | 51.44768 | -126.60133 | 35166 ft | 451 kts | 147° |
| 2026-05-01 14:40 | 51.39789 | -126.54011 | 35149 ft | 451 kts | 147° |
| 2026-05-01 14:40 | 51.34816 | -126.47909 | 35144 ft | 451 kts | 147° |
| 2026-05-01 14:41 | 51.29837 | -126.41811 | 35154 ft | 451 kts | 147° |
| 2026-05-01 14:41 | 51.24854 | -126.35733 | 35150 ft | 451 kts | 147° |
| 2026-05-01 14:42 | 51.19861 | -126.29670 | 35129 ft | 450 kts | 147° |
| 2026-05-01 14:42 | 51.14911 | -126.23660 | 35135 ft | 450 kts | 147° |
| 2026-05-01 14:43 | 51.09929 | -126.17616 | 35135 ft | 450 kts | 147° |
| 2026-05-01 14:43 | 51.04934 | -126.11587 | 35141 ft | 450 kts | 147° |
| 2026-05-01 14:44 | 50.99942 | -126.05585 | 35126 ft | 450 kts | 147° |
| 2026-05-01 14:44 | 50.92454 | -125.96597 | 35133 ft | 450 kts | 147° |
| 2026-05-01 14:45 | 50.84925 | -125.87613 | 35136 ft | 449 kts | 148° |
| 2026-05-01 14:46 | 50.79944 | -125.81694 | 35133 ft | 448 kts | 148° |
| 2026-05-01 14:46 | 50.72462 | -125.72806 | 35147 ft | 449 kts | 148° |
| 2026-05-01 14:47 | 50.67468 | -125.66896 | 35140 ft | 449 kts | 148° |
| 2026-05-01 14:48 | 50.59958 | -125.58059 | 35121 ft | 449 kts | 148° |
| 2026-05-01 14:48 | 50.52444 | -125.49253 | 35129 ft | 449 kts | 148° |
| 2026-05-01 14:49 | 50.42420 | -125.37545 | 35126 ft | 449 kts | 148° |
| 2026-05-01 14:50 | 50.32379 | -125.25888 | 35116 ft | 449 kts | 148° |
| 2026-05-01 14:51 | 50.24848 | -125.17192 | 35118 ft | 449 kts | 148° |
| 2026-05-01 14:52 | 50.17315 | -125.08510 | 35121 ft | 448 kts | 148° |
| 2026-05-01 14:53 | 50.09817 | -124.99901 | 35120 ft | 448 kts | 148° |
| 2026-05-01 14:53 | 50.04766 | -124.94130 | 35105 ft | 448 kts | 148° |
| 2026-05-01 14:54 | 49.99744 | -124.88414 | 35108 ft | 447 kts | 148° |
| 2026-05-01 14:54 | 49.95572 | -124.83674 | 35122 ft | 446 kts | 148° |
| 2026-05-01 14:55 | 49.90562 | -124.77990 | 35134 ft | 446 kts | 148° |
| 2026-05-01 14:55 | 49.85560 | -124.72325 | 35138 ft | 445 kts | 148° |
| 2026-05-01 14:56 | 49.80559 | -124.66690 | 35120 ft | 444 kts | 148° |
| 2026-05-01 14:56 | 49.75563 | -124.61064 | 35122 ft | 444 kts | 148° |
| 2026-05-01 14:57 | 49.70567 | -124.55461 | 35121 ft | 443 kts | 148° |
| 2026-05-01 14:57 | 49.63082 | -124.47074 | 35098 ft | 443 kts | 148° |
| 2026-05-01 14:58 | 49.58084 | -124.41500 | 35097 ft | 443 kts | 148° |
| 2026-05-01 14:58 | 49.53084 | -124.35947 | 35091 ft | 443 kts | 148° |
| 2026-05-01 14:59 | 49.48075 | -124.30406 | 35090 ft | 443 kts | 148° |
| 2026-05-01 14:59 | 49.43071 | -124.24860 | 35074 ft | 444 kts | 148° |
| 2026-05-01 15:00 | 49.35593 | -124.16590 | 35079 ft | 443 kts | 148° |
| 2026-05-01 15:01 | 49.30573 | -124.11081 | 35087 ft | 444 kts | 148° |
| 2026-05-01 15:01 | 49.25550 | -124.05579 | 35076 ft | 444 kts | 148° |
| 2026-05-01 15:02 | 49.20523 | -124.00075 | 35093 ft | 444 kts | 148° |
| 2026-05-01 15:02 | 49.15493 | -123.94579 | 35098 ft | 444 kts | 148° |
| 2026-05-01 15:03 | 49.10462 | -123.89096 | 35102 ft | 444 kts | 148° |
| 2026-05-01 15:03 | 49.05421 | -123.83635 | 35086 ft | 444 kts | 148° |
| 2026-05-01 15:04 | 49.00381 | -123.78181 | 35091 ft | 445 kts | 148° |
| 2026-05-01 15:04 | 48.95335 | -123.72733 | 35093 ft | 445 kts | 148° |
| 2026-05-01 15:05 | 48.90281 | -123.67283 | 35096 ft | 445 kts | 148° |
| 2026-05-01 15:05 | 48.85224 | -123.61859 | 35077 ft | 445 kts | 148° |
| 2026-05-01 15:06 | 48.80162 | -123.56427 | 35086 ft | 446 kts | 148° |
| 2026-05-01 15:06 | 48.75092 | -123.50997 | 34856 ft | 447 kts | 148° |
| 2026-05-01 15:06 | 48.72572 | -123.48316 | 34531 ft | 439 kts | 149° |
| 2026-05-01 15:07 | 48.70049 | -123.45770 | 34290 ft | 434 kts | 150° |
| 2026-05-01 15:07 | 48.67496 | -123.43349 | 34026 ft | 432 kts | 152° |
| 2026-05-01 15:07 | 48.64930 | -123.41009 | 33745 ft | 429 kts | 152° |
| 2026-05-01 15:07 | 48.62378 | -123.38707 | 33225 ft | 425 kts | 153° |
| 2026-05-01 15:08 | 48.59854 | -123.36424 | 32681 ft | 421 kts | 152° |
| 2026-05-01 15:08 | 48.57360 | -123.34143 | 32140 ft | 418 kts | 152° |
| 2026-05-01 15:08 | 48.54890 | -123.31863 | 31603 ft | 415 kts | 152° |
| 2026-05-01 15:08 | 48.52438 | -123.29583 | 31081 ft | 412 kts | 152° |
| 2026-05-01 15:09 | 48.50009 | -123.27315 | 30556 ft | 410 kts | 152° |
| 2026-05-01 15:09 | 48.47590 | -123.25057 | 30011 ft | 408 kts | 152° |
| 2026-05-01 15:09 | 48.45185 | -123.22818 | 29469 ft | 404 kts | 152° |
| 2026-05-01 15:09 | 48.42800 | -123.20607 | 28950 ft | 400 kts | 152° |
| 2026-05-01 15:10 | 48.40441 | -123.18431 | 28470 ft | 396 kts | 152° |
| 2026-05-01 15:10 | 48.35785 | -123.14146 | 27496 ft | 389 kts | 152° |
| 2026-05-01 15:10 | 48.33486 | -123.12031 | 27028 ft | 386 kts | 152° |
| 2026-05-01 15:11 | 48.31205 | -123.09935 | 26565 ft | 383 kts | 152° |
| 2026-05-01 15:11 | 48.26698 | -123.05797 | 25642 ft | 377 kts | 152° |
| 2026-05-01 15:11 | 48.24470 | -123.03756 | 25200 ft | 374 kts | 152° |
| 2026-05-01 15:12 | 48.22252 | -123.01728 | 24746 ft | 372 kts | 152° |
| 2026-05-01 15:12 | 48.17856 | -122.97711 | 23815 ft | 368 kts | 152° |
| 2026-05-01 15:12 | 48.15673 | -122.95718 | 23283 ft | 367 kts | 152° |
| 2026-05-01 15:13 | 48.09203 | -122.89832 | 21837 ft | 359 kts | 152° |
| 2026-05-01 15:14 | 48.04969 | -122.85986 | 20908 ft | 354 kts | 152° |
| 2026-05-01 15:14 | 48.02867 | -122.84077 | 20447 ft | 353 kts | 152° |
| 2026-05-01 15:14 | 47.98691 | -122.80287 | 19602 ft | 350 kts | 152° |
| 2026-05-01 15:15 | 47.94534 | -122.76518 | 18681 ft | 349 kts | 152° |
| 2026-05-01 15:15 | 47.90400 | -122.72783 | 17788 ft | 344 kts | 152° |
| 2026-05-01 15:16 | 47.86310 | -122.69107 | 16905 ft | 342 kts | 152° |
| 2026-05-01 15:16 | 47.82280 | -122.65496 | 16190 ft | 336 kts | 152° |
| 2026-05-01 15:17 | 47.78297 | -122.61928 | 15457 ft | 332 kts | 152° |
| 2026-05-01 15:18 | 47.72582 | -122.56811 | 14183 ft | 305 kts | 153° |
| 2026-05-01 15:18 | 47.70704 | -122.55438 | 13913 ft | 300 kts | 158° |
| 2026-05-01 15:19 | 47.65052 | -122.51557 | 12760 ft | 298 kts | 158° |
| 2026-05-01 15:19 | 47.61301 | -122.48981 | 11759 ft | 293 kts | 158° |
| 2026-05-01 15:19 | 47.59465 | -122.47721 | 11223 ft | 289 kts | 158° |
| 2026-05-01 15:20 | 47.55661 | -122.46389 | 10705 ft | 273 kts | 182° |
| 2026-05-01 15:20 | 47.53889 | -122.46412 | 10453 ft | 270 kts | 182° |
| 2026-05-01 15:20 | 47.52164 | -122.46429 | 10145 ft | 268 kts | 182° |
| 2026-05-01 15:21 | 47.50314 | -122.46444 | 9531 ft | 265 kts | 182° |
| 2026-05-01 15:21 | 47.48507 | -122.46457 | 9240 ft | 250 kts | 182° |
| 2026-05-01 15:21 | 47.46830 | -122.46470 | 9107 ft | 232 kts | 182° |
| 2026-05-01 15:21 | 47.45252 | -122.46484 | 8807 ft | 224 kts | 182° |
| 2026-05-01 15:22 | 47.42148 | -122.46516 | 7932 ft | 221 kts | 181° |
| 2026-05-01 15:22 | 47.40615 | -122.46531 | 7522 ft | 219 kts | 181° |
| 2026-05-01 15:22 | 47.39100 | -122.46546 | 7149 ft | 216 kts | 181° |
| 2026-05-01 15:23 | 47.37576 | -122.46562 | 7102 ft | 217 kts | 181° |
| 2026-05-01 15:23 | 47.36229 | -122.46574 | 7053 ft | 217 kts | 181° |
| 2026-05-01 15:23 | 47.34719 | -122.46605 | 6913 ft | 217 kts | 186° |
| 2026-05-01 15:23 | 47.33253 | -122.47009 | 6981 ft | 215 kts | 200° |
| 2026-05-01 15:24 | 47.31917 | -122.48004 | 7040 ft | 216 kts | 213° |
| 2026-05-01 15:24 | 47.30708 | -122.49271 | 7044 ft | 216 kts | 216° |
| 2026-05-01 15:24 | 47.29581 | -122.50765 | 7039 ft | 216 kts | 233° |
| 2026-05-01 15:24 | 47.28864 | -122.52713 | 7046 ft | 217 kts | 245° |
| 2026-05-01 15:25 | 47.28097 | -122.54610 | 6937 ft | 216 kts | 224° |
| 2026-05-01 15:25 | 47.26835 | -122.55737 | 6734 ft | 214 kts | 195° |
| 2026-05-01 15:25 | 47.25356 | -122.55814 | 6569 ft | 216 kts | 167° |
| 2026-05-01 15:25 | 47.24028 | -122.54812 | 6397 ft | 218 kts | 137° |
| 2026-05-01 15:26 | 47.23205 | -122.52955 | 6229 ft | 220 kts | 108° |
| 2026-05-01 15:26 | 47.23108 | -122.50716 | 6034 ft | 223 kts | 80° |
| 2026-05-01 15:26 | 47.23723 | -122.48603 | 5692 ft | 230 kts | 60° |
| 2026-05-01 15:26 | 47.24552 | -122.46576 | 5375 ft | 231 kts | 59° |
| 2026-05-01 15:27 | 47.25382 | -122.44546 | 5059 ft | 233 kts | 60° |
| 2026-05-01 15:27 | 47.26228 | -122.42468 | 4724 ft | 238 kts | 60° |
| 2026-05-01 15:27 | 47.27091 | -122.40342 | 4383 ft | 238 kts | 60° |
| 2026-05-01 15:28 | 47.28782 | -122.36181 | 3748 ft | 236 kts | 59° |
| 2026-05-01 15:28 | 47.29615 | -122.34127 | 3411 ft | 233 kts | 59° |
| 2026-05-01 15:28 | 47.30689 | -122.32424 | 3081 ft | 223 kts | 29° |
| 2026-05-01 15:29 | 47.33556 | -122.31887 | 2503 ft | 197 kts | 1° |
| 2026-05-01 15:29 | 47.34884 | -122.31876 | 2208 ft | 185 kts | 1° |
| 2026-05-01 15:29 | 47.37322 | -122.31858 | 1732 ft | 165 kts | 1° |
| 2026-05-01 15:30 | 47.39147 | -122.31842 | 1369 ft | 151 kts | 1° |
| 2026-05-01 15:31 | 47.43059 | -122.31818 | 564 ft | 136 kts | 359° |
| 2026-05-01 15:31 | 47.44787 | -122.31800 | 392 ft | 77 kts | 358° |
| 2026-05-01 15:32 | 47.45392 | -122.31689 | 399 ft | 10 kts | 33° |
| 2026-05-01 15:32 | 47.45499 | -122.31482 | 408 ft | 15 kts | 76° |
| 2026-05-01 15:33 | 47.45504 | -122.30999 | 413 ft | 12 kts | 88° |
| 2026-05-01 15:34 | 47.45519 | -122.30646 | 425 ft | 14 kts | 156° |